createdAt,value
2023-01-06T00:01:21.325Z,-20.52
2023-01-06T00:03:57.461Z,-20.57
2023-01-06T00:06:31.926Z,-20.60
2023-01-06T00:09:07.466Z,-20.66
2023-01-06T00:11:40.533Z,-20.70
2023-01-06T00:14:13.774Z,-20.74
2023-01-06T00:16:46.921Z,-20.80
2023-01-06T00:19:19.972Z,-20.81
2023-01-06T00:21:52.804Z,-20.85
2023-01-06T00:24:25.989Z,-20.87
2023-01-06T00:26:59.167Z,-20.90
2023-01-06T00:29:32.356Z,-20.92
2023-01-06T00:32:05.802Z,-20.92
2023-01-06T00:34:38.891Z,-20.93
2023-01-06T00:37:12.248Z,-20.93
2023-01-06T00:39:45.275Z,-20.96
2023-01-06T00:42:18.471Z,-21.07
2023-01-06T00:44:52.021Z,-21.13
2023-01-06T00:47:26.292Z,-21.16
2023-01-06T00:50:00.573Z,-21.20
2023-01-06T00:52:34.399Z,-21.20
2023-01-06T00:55:09.594Z,-21.24
2023-01-06T00:57:43.147Z,-21.31
2023-01-06T01:00:18.616Z,-21.37
2023-01-06T01:02:51.814Z,-21.40
2023-01-06T01:05:24.895Z,-21.43
2023-01-06T01:07:57.954Z,-21.45
2023-01-06T01:10:30.988Z,-21.45
2023-01-06T01:13:04.190Z,-21.51
2023-01-06T01:15:37.343Z,-21.52
2023-01-06T01:18:10.579Z,-21.53
2023-01-06T01:20:45.144Z,-21.52
2023-01-06T01:23:19.176Z,-21.54
2023-01-06T01:25:53.946Z,-21.58
2023-01-06T01:28:26.814Z,-21.63
2023-01-06T01:31:03.103Z,-21.66
2023-01-06T01:33:36.443Z,-21.69
2023-01-06T01:36:11.965Z,-21.72
2023-01-06T01:38:45.519Z,-21.79
2023-01-06T01:41:20.977Z,-21.81
2023-01-06T01:43:56.354Z,-21.85
2023-01-06T01:46:32.580Z,-21.89
2023-01-06T01:49:08.419Z,-21.92
2023-01-06T01:51:44.557Z,-22.03
2023-01-06T01:54:20.377Z,-21.92
2023-01-06T01:56:56.199Z,-21.98
2023-01-06T01:59:32.110Z,-21.98
2023-01-06T02:02:05.357Z,-22.00
2023-01-06T02:04:41.381Z,-22.04
2023-01-06T02:07:15.909Z,-22.07
2023-01-06T02:09:53.878Z,-22.07
2023-01-06T02:12:27.297Z,-22.09
2023-01-06T02:15:00.399Z,-22.14
2023-01-06T02:18:03.254Z,-22.21
2023-01-06T02:20:47.633Z,-22.27
2023-01-06T02:24:03.658Z,-22.27
2023-01-06T02:27:12.933Z,-22.31
2023-01-06T02:30:23.097Z,-22.33
2023-01-06T02:33:03.382Z,-22.35
2023-01-06T02:35:51.440Z,-22.36
2023-01-06T02:38:31.989Z,-22.38
2023-01-06T02:41:14.429Z,-22.47
2023-01-06T02:43:56.671Z,-22.50
2023-01-06T02:46:36.020Z,-22.51
2023-01-06T02:49:15.127Z,-22.50
2023-01-06T02:51:51.354Z,-22.49
2023-01-06T02:54:28.797Z,-22.47
2023-01-06T02:57:05.824Z,-22.48
2023-01-06T02:59:42.332Z,-22.50
2023-01-06T03:02:17.875Z,-22.51
2023-01-06T03:04:53.250Z,-22.51
2023-01-06T03:07:29.104Z,-22.53
2023-01-06T03:10:05.050Z,-22.56
2023-01-06T03:12:40.933Z,-22.59
2023-01-06T03:15:14.989Z,-22.60
2023-01-06T03:17:49.257Z,-22.65
2023-01-06T03:20:23.180Z,-22.66
2023-01-06T03:22:56.197Z,-22.70
2023-01-06T03:25:29.477Z,-22.76
2023-01-06T03:28:03.145Z,-22.78
2023-01-06T03:30:40.823Z,-22.77
2023-01-06T03:33:16.949Z,-22.77
2023-01-06T03:39:00.245Z,-22.67
2023-01-06T03:41:56.094Z,-22.80
2023-01-06T03:44:33.412Z,-22.83
2023-01-06T03:47:10.641Z,-22.85
2023-01-06T03:49:48.573Z,-22.83
2023-01-06T03:52:25.466Z,-22.83
2023-01-06T03:55:01.475Z,-22.83
2023-01-06T03:57:38.077Z,-22.87
2023-01-06T04:00:16.694Z,-22.90
2023-01-06T04:02:51.740Z,-22.91
2023-01-06T04:05:28.968Z,-22.92
2023-01-06T04:08:03.513Z,-22.92
2023-01-06T04:10:37.011Z,-22.90
2023-01-06T04:13:10.100Z,-22.91
2023-01-06T04:15:44.391Z,-22.97
2023-01-06T04:18:17.454Z,-22.98
2023-01-06T04:20:50.710Z,-23.00
2023-01-06T04:23:25.159Z,-23.01
2023-01-06T04:25:58.237Z,-23.01
2023-01-06T04:28:32.892Z,-23.04
2023-01-06T04:31:06.243Z,-23.07
2023-01-06T04:33:39.965Z,-23.08
2023-01-06T04:36:15.485Z,-23.12
2023-01-06T04:38:50.260Z,-23.17
2023-01-06T04:41:23.396Z,-23.18
2023-01-06T04:43:58.066Z,-23.17
2023-01-06T04:46:31.345Z,-23.17
2023-01-06T04:49:04.220Z,-23.22
2023-01-06T04:51:37.419Z,-23.28
2023-01-06T04:54:10.473Z,-23.32
2023-01-06T04:56:43.707Z,-23.33
2023-01-06T04:59:17.012Z,-23.35
2023-01-06T05:01:50.162Z,-23.38
2023-01-06T05:04:23.702Z,-23.38
2023-01-06T05:06:56.921Z,-23.43
2023-01-06T05:09:30.198Z,-23.43
2023-01-06T05:12:03.284Z,-23.44
2023-01-06T05:14:36.362Z,-23.45
2023-01-06T05:17:09.477Z,-23.44
2023-01-06T05:19:43.163Z,-23.46
2023-01-06T05:22:16.390Z,-23.51
2023-01-06T05:24:49.620Z,-23.56
2023-01-06T05:27:22.672Z,-23.58
2023-01-06T05:29:55.909Z,-23.58
2023-01-06T05:32:29.035Z,-23.57
2023-01-06T05:35:02.271Z,-23.59
2023-01-06T05:37:35.950Z,-23.63
2023-01-06T05:40:11.960Z,-23.64
2023-01-06T05:42:45.088Z,-23.69
2023-01-06T05:45:18.395Z,-23.69
2023-01-06T05:47:51.661Z,-23.67
2023-01-06T05:50:24.796Z,-23.67
2023-01-06T05:52:59.873Z,-23.74
2023-01-06T05:55:32.683Z,-23.73
2023-01-06T05:58:05.867Z,-23.69
2023-01-06T06:00:38.826Z,-23.69
2023-01-06T06:03:11.882Z,-23.69
2023-01-06T06:05:45.189Z,-23.68
2023-01-06T06:08:18.385Z,-23.65
2023-01-06T06:10:51.467Z,-23.61
2023-01-06T06:13:24.618Z,-23.60
2023-01-06T06:16:07.426Z,-23.58
2023-01-06T06:18:43.050Z,-23.57
2023-01-06T06:21:18.071Z,-23.55
2023-01-06T06:23:52.590Z,-23.50
2023-01-06T06:26:25.975Z,-23.48
2023-01-06T06:28:59.129Z,-23.42
2023-01-06T06:31:32.430Z,-23.35
2023-01-06T06:34:06.241Z,-23.24
2023-01-06T06:36:39.225Z,-22.84
2023-01-06T06:39:12.562Z,-22.25
2023-01-06T06:41:45.638Z,-21.67
2023-01-06T06:44:18.704Z,-21.14
2023-01-06T06:46:51.893Z,-20.59
2023-01-06T06:49:25.109Z,-19.99
2023-01-06T06:51:58.384Z,-19.44
2023-01-06T06:54:31.595Z,-18.87
2023-01-06T06:57:04.823Z,-18.36
2023-01-06T06:59:37.959Z,-17.92
2023-01-06T07:02:11.564Z,-17.57
2023-01-06T07:04:44.745Z,-17.20
2023-01-06T07:07:17.889Z,-16.91
2023-01-06T07:09:51.339Z,-16.71
2023-01-06T07:12:24.503Z,-16.27
2023-01-06T07:14:57.659Z,-15.76
2023-01-06T07:17:31.113Z,-15.40
2023-01-06T07:20:04.291Z,-15.19
2023-01-06T07:22:40.494Z,-14.86
2023-01-06T07:25:13.718Z,-14.37
2023-01-06T07:27:47.035Z,-13.88
2023-01-06T07:30:20.220Z,-13.64
2023-01-06T07:32:54.125Z,-13.23
2023-01-06T07:35:27.063Z,-12.90
2023-01-06T07:38:04.760Z,-12.56
2023-01-06T07:40:38.115Z,-12.31
2023-01-06T07:43:12.414Z,-11.87
2023-01-06T07:45:47.096Z,-11.42
2023-01-06T07:48:20.147Z,-11.11
2023-01-06T07:50:53.233Z,-11.01
2023-01-06T07:53:26.219Z,-10.86
2023-01-06T07:55:59.266Z,-10.40
2023-01-06T07:58:32.729Z,-10.08
2023-01-06T08:01:09.994Z,-9.67
2023-01-06T08:03:43.387Z,-9.36
2023-01-06T08:06:16.593Z,-9.06
2023-01-06T08:08:49.678Z,-8.75
2023-01-06T08:11:22.871Z,-8.33
2023-01-06T08:13:56.026Z,-8.14
2023-01-06T08:16:29.494Z,-8.11
2023-01-06T08:19:04.309Z,-8.08
2023-01-06T08:21:37.496Z,-8.22
2023-01-06T08:24:11.508Z,-7.92
2023-01-06T08:26:44.974Z,-7.50
2023-01-06T08:29:18.293Z,-7.12
2023-01-06T08:31:56.906Z,-6.84
2023-01-06T08:37:06.687Z,-6.37
2023-01-06T08:39:39.792Z,-6.49
2023-01-06T08:42:13.066Z,-6.45
2023-01-06T08:44:46.671Z,-6.26
2023-01-06T08:47:19.872Z,-5.81
2023-01-06T08:49:52.946Z,-5.58
2023-01-06T08:52:26.166Z,-5.35
2023-01-06T08:55:00.418Z,-5.35
2023-01-06T08:57:34.964Z,-5.33
2023-01-06T09:00:10.499Z,-4.98
2023-01-06T09:02:43.642Z,-4.71
2023-01-06T09:05:17.835Z,-4.43
2023-01-06T09:07:51.267Z,-4.51
2023-01-06T09:10:24.457Z,-4.44
2023-01-06T09:12:57.664Z,-4.15
2023-01-06T09:15:31.003Z,-4.38
2023-01-06T09:18:04.350Z,-4.88
2023-01-06T09:20:37.670Z,-5.21
2023-01-06T09:23:10.850Z,-5.36
2023-01-06T09:25:43.893Z,-5.95
2023-01-06T09:28:16.907Z,-6.65
2023-01-06T09:30:50.548Z,-7.60
2023-01-06T09:33:23.827Z,-8.40
2023-01-06T09:35:56.986Z,-9.10
2023-01-06T09:38:30.673Z,-9.24
2023-01-06T09:41:18.929Z,-9.25
2023-01-06T09:43:54.869Z,-9.70
2023-01-06T09:46:30.791Z,-10.05
2023-01-06T09:49:10.294Z,-10.20
2023-01-06T09:51:44.759Z,-10.41
2023-01-06T09:54:21.494Z,-10.53
2023-01-06T09:56:57.909Z,-10.77
2023-01-06T09:59:34.059Z,-11.05
2023-01-06T10:02:11.988Z,-11.07
2023-01-06T10:04:45.275Z,-11.01
2023-01-06T10:07:21.678Z,-10.93
2023-01-06T10:10:01.673Z,-10.36
2023-01-06T10:12:42.275Z,-9.45
2023-01-06T10:15:20.380Z,-9.53
2023-01-06T10:18:04.889Z,-9.48
2023-01-06T10:20:59.895Z,-9.59
2023-01-06T10:23:46.132Z,-9.63
2023-01-06T10:26:23.714Z,-9.66
2023-01-06T10:28:59.662Z,-9.73
2023-01-06T10:31:37.251Z,-9.80
2023-01-06T10:34:10.334Z,-9.52
2023-01-06T10:36:45.951Z,-9.19
2023-01-06T10:39:21.768Z,-9.03
2023-01-06T10:42:20.653Z,-8.56
2023-01-06T10:44:53.908Z,-7.95
2023-01-06T10:47:30.127Z,-8.41
2023-01-06T10:50:03.894Z,-8.40
2023-01-06T10:52:38.146Z,-8.48
2023-01-06T10:55:17.320Z,-8.47
2023-01-06T10:57:51.285Z,-8.13
2023-01-06T11:00:26.950Z,-7.39
2023-01-06T11:03:19.693Z,-6.76
2023-01-06T11:05:40.981Z,-6.82
2023-01-06T11:08:17.207Z,-6.89
2023-01-06T11:10:54.286Z,-7.08
2023-01-06T11:13:32.480Z,-7.88
2023-01-06T11:16:09.298Z,-7.90
2023-01-06T11:18:42.970Z,-7.88
2023-01-06T11:21:17.055Z,-7.92
2023-01-06T11:23:51.142Z,-8.18
2023-01-06T11:26:25.379Z,-8.62
2023-01-06T11:29:00.192Z,-9.04
2023-01-06T11:31:33.698Z,-9.56
2023-01-06T11:34:06.905Z,-9.84
2023-01-06T11:36:42.941Z,-10.14
2023-01-06T11:39:19.045Z,-10.27
2023-01-06T11:41:55.155Z,-10.33
2023-01-06T11:44:33.516Z,-10.48
2023-01-06T11:47:09.988Z,-10.64
2023-01-06T11:49:45.704Z,-10.78
2023-01-06T11:52:25.244Z,-11.03
2023-01-06T11:55:04.904Z,-11.15
2023-01-06T11:57:43.542Z,-11.41
2023-01-06T12:00:41.463Z,-11.76
2023-01-06T12:03:20.199Z,-11.74
2023-01-06T12:05:58.526Z,-11.22
2023-01-06T12:08:35.203Z,-10.59
2023-01-06T12:11:12.234Z,-10.13
2023-01-06T12:14:08.317Z,-9.74
2023-01-06T12:16:24.046Z,-9.82
2023-01-06T12:18:57.655Z,-10.36
2023-01-06T12:21:33.149Z,-11.14
2023-01-06T12:24:08.858Z,-11.54
2023-01-06T12:26:44.273Z,-11.39
2023-01-06T12:29:21.213Z,-11.03
2023-01-06T12:32:00.227Z,-10.67
2023-01-06T12:34:37.473Z,-10.65
2023-01-06T12:37:17.401Z,-10.64
2023-01-06T12:39:54.491Z,-10.84
2023-01-06T12:42:31.911Z,-11.36
2023-01-06T12:45:08.443Z,-11.74
2023-01-06T12:47:44.568Z,-12.11
2023-01-06T12:50:22.640Z,-12.62
2023-01-06T12:53:01.253Z,-13.13
2023-01-06T12:55:36.826Z,-13.63
2023-01-06T12:58:12.791Z,-14.30
2023-01-06T13:00:51.161Z,-15.02
2023-01-06T13:04:13.470Z,-15.64
2023-01-06T13:07:09.595Z,-15.90
2023-01-06T13:12:42.266Z,-16.51
2023-01-06T13:15:19.527Z,-16.92
2023-01-06T13:17:58.012Z,-17.11
2023-01-06T13:20:34.731Z,-17.38
2023-01-06T13:23:26.449Z,-17.80
2023-01-06T13:26:20.559Z,-18.07
2023-01-06T13:28:58.961Z,-18.23
2023-01-06T13:35:14.923Z,-18.33
2023-01-06T13:37:59.752Z,-18.46
2023-01-06T13:40:35.744Z,-18.50
2023-01-06T13:43:11.203Z,-18.54
2023-01-06T13:45:46.673Z,-18.68
2023-01-06T13:48:22.383Z,-18.74
2023-01-06T13:50:56.763Z,-18.78
2023-01-06T13:53:31.523Z,-18.79
2023-01-06T13:56:27.491Z,-18.89
2023-01-06T13:59:26.159Z,-18.98
2023-01-06T14:02:00.050Z,-19.25
2023-01-06T14:04:50.200Z,-19.58
2023-01-06T14:07:36.575Z,-19.74
2023-01-06T14:10:18.607Z,-20.02
2023-01-06T14:12:51.862Z,-20.13
2023-01-06T14:15:27.878Z,-20.02
2023-01-06T14:18:02.943Z,-20.03
2023-01-06T14:20:38.343Z,-20.09
2023-01-06T14:23:23.893Z,-20.09
2023-01-06T14:25:58.513Z,-20.13
2023-01-06T14:28:34.672Z,-20.23
2023-01-06T14:31:43.262Z,-20.37
2023-01-06T14:34:19.586Z,-20.46
2023-01-06T14:36:56.858Z,-20.65
2023-01-06T14:39:31.294Z,-20.66
2023-01-06T14:42:07.562Z,-20.70
2023-01-06T14:44:44.601Z,-20.82
2023-01-06T14:47:21.714Z,-20.89
2023-01-06T14:49:58.408Z,-21.02
2023-01-06T14:52:35.033Z,-21.04
2023-01-06T14:55:08.514Z,-21.13
2023-01-06T14:57:41.751Z,-21.27
2023-01-06T15:00:20.673Z,-21.35
2023-01-06T15:02:55.899Z,-21.38
2023-01-06T15:05:32.530Z,-21.41
2023-01-06T15:08:08.011Z,-21.45
2023-01-06T15:10:43.723Z,-21.48
2023-01-06T15:13:25.143Z,-21.51
2023-01-06T15:16:01.162Z,-21.52
2023-01-06T15:18:35.280Z,-21.56
2023-01-06T15:21:08.942Z,-21.60
2023-01-06T15:23:45.421Z,-21.59
2023-01-06T15:26:21.413Z,-21.60
2023-01-06T15:29:02.805Z,-21.69
2023-01-06T15:31:39.346Z,-21.70
2023-01-06T15:34:15.630Z,-21.79
2023-01-06T15:36:50.710Z,-21.79
2023-01-06T15:39:28.698Z,-21.87
2023-01-06T15:42:03.239Z,-21.96
2023-01-06T15:44:37.988Z,-21.98
2023-01-06T15:47:22.728Z,-22.00
2023-01-06T15:49:59.750Z,-22.01
2023-01-06T15:52:37.032Z,-22.05
2023-01-06T15:55:21.873Z,-22.12
2023-01-06T15:57:59.846Z,-22.16
2023-01-06T16:00:36.999Z,-22.21
2023-01-06T16:03:16.909Z,-22.23
2023-01-06T16:05:55.397Z,-22.25
2023-01-06T16:08:28.496Z,-22.28
2023-01-06T16:11:47.424Z,-22.33
2023-01-06T16:14:32.019Z,-22.35
2023-01-06T16:17:08.851Z,-22.35
2023-01-06T16:19:48.244Z,-22.31
2023-01-06T16:22:31.402Z,-22.25
2023-01-06T16:25:07.889Z,-22.26
2023-01-06T16:27:39.965Z,-22.23
2023-01-06T16:30:22.074Z,-22.21
2023-01-06T16:32:56.333Z,-22.18
2023-01-06T16:35:31.601Z,-22.19
2023-01-06T16:38:06.363Z,-22.22
2023-01-06T16:40:39.513Z,-22.28
2023-01-06T16:43:12.542Z,-22.27
2023-01-06T16:45:49.323Z,-22.26
2023-01-06T16:48:22.370Z,-22.27
2023-01-06T16:50:56.556Z,-22.30
2023-01-06T16:53:32.597Z,-22.25
2023-01-06T16:56:08.243Z,-22.22
2023-01-06T16:58:42.276Z,-22.12
2023-01-06T17:01:18.252Z,-22.07
2023-01-06T17:03:55.275Z,-22.06
2023-01-06T17:06:30.087Z,-22.14
2023-01-06T17:09:05.475Z,-22.23
2023-01-06T17:11:38.839Z,-22.27
2023-01-06T17:14:16.647Z,-22.25
2023-01-06T17:16:50.810Z,-22.22
2023-01-06T17:19:26.834Z,-22.22
2023-01-06T17:22:03.329Z,-22.23
2023-01-06T17:24:36.309Z,-22.19
2023-01-06T17:27:16.640Z,-22.14
2023-01-06T17:29:50.275Z,-22.05
2023-01-06T17:32:26.310Z,-21.98
2023-01-06T17:35:00.616Z,-21.90
2023-01-06T17:37:35.796Z,-21.89
2023-01-06T17:40:16.189Z,-21.87
2023-01-06T17:42:52.340Z,-21.94
2023-01-06T17:45:27.940Z,-22.04
2023-01-06T17:48:01.177Z,-22.10
2023-01-06T17:50:36.900Z,-22.17
2023-01-06T17:53:34.666Z,-22.18
2023-01-06T17:56:10.736Z,-22.17
2023-01-06T17:58:45.424Z,-22.17
2023-01-06T18:01:23.314Z,-22.11
2023-01-06T18:04:00.311Z,-22.16
2023-01-06T18:06:34.422Z,-22.17
2023-01-06T18:09:15.061Z,-22.12
2023-01-06T18:11:50.851Z,-22.11
2023-01-06T18:14:28.201Z,-22.11
2023-01-06T18:17:03.580Z,-22.12
2023-01-06T18:19:39.151Z,-22.14
2023-01-06T18:22:17.446Z,-22.08
2023-01-06T18:24:54.534Z,-21.96
2023-01-06T18:27:30.172Z,-21.87
2023-01-06T18:30:10.489Z,-21.81
2023-01-06T18:32:46.226Z,-21.77
2023-01-06T18:35:22.117Z,-21.81
2023-01-06T18:37:55.657Z,-21.83
2023-01-06T18:40:29.171Z,-21.90
2023-01-06T18:43:04.664Z,-21.94
2023-01-06T18:45:39.299Z,-21.96
2023-01-06T18:48:17.551Z,-21.99
2023-01-06T18:50:52.781Z,-22.07
2023-01-06T18:53:28.556Z,-22.10
2023-01-06T18:56:04.957Z,-22.10
2023-01-06T18:58:47.632Z,-22.10
2023-01-06T19:01:23.594Z,-22.11
2023-01-06T19:04:03.527Z,-22.21
2023-01-06T19:06:43.483Z,-22.25
2023-01-06T19:09:26.105Z,-22.24
2023-01-06T19:12:03.841Z,-22.25
2023-01-06T19:14:39.751Z,-22.34
2023-01-06T19:17:28.493Z,-22.39
2023-01-06T19:20:04.968Z,-22.47
2023-01-06T19:22:39.723Z,-22.52
2023-01-06T19:25:19.704Z,-22.55
2023-01-06T19:27:55.162Z,-22.57
2023-01-06T19:30:44.025Z,-22.59
2023-01-06T19:33:36.157Z,-22.58
2023-01-06T19:36:44.104Z,-22.55
2023-01-06T19:42:22.296Z,-22.48
2023-01-06T19:44:57.627Z,-22.59
2023-01-06T19:47:35.864Z,-22.58
2023-01-06T19:50:16.611Z,-22.59
2023-01-06T19:52:50.995Z,-22.62
2023-01-06T19:55:26.854Z,-22.62
2023-01-06T19:58:02.394Z,-22.64
2023-01-06T20:00:40.148Z,-22.66
2023-01-06T20:03:20.456Z,-22.67
2023-01-06T20:05:53.530Z,-22.72
2023-01-06T20:08:27.103Z,-22.79
2023-01-06T20:11:01.221Z,-22.84
2023-01-06T20:13:34.397Z,-22.86
2023-01-06T20:16:09.564Z,-22.96
2023-01-06T20:18:42.826Z,-23.05
2023-01-06T20:21:16.420Z,-23.07
2023-01-06T20:23:49.603Z,-23.07
2023-01-06T20:26:22.603Z,-23.04
2023-01-06T20:28:56.015Z,-22.97
2023-01-06T20:31:29.546Z,-22.92
2023-01-06T20:34:02.661Z,-22.91
2023-01-06T20:36:35.917Z,-22.91
2023-01-06T20:39:09.098Z,-22.92
2023-01-06T20:41:42.541Z,-22.94
2023-01-06T20:44:15.757Z,-22.97
2023-01-06T20:46:50.511Z,-22.98
2023-01-06T20:49:23.704Z,-23.00
2023-01-06T20:51:56.858Z,-23.04
2023-01-06T20:54:29.940Z,-23.07
2023-01-06T20:57:03.411Z,-23.05
2023-01-06T20:59:36.563Z,-23.07
2023-01-06T21:02:10.200Z,-23.05
2023-01-06T21:04:43.311Z,-23.06
2023-01-06T21:07:16.726Z,-23.04
2023-01-06T21:09:49.965Z,-22.97
2023-01-06T21:12:23.460Z,-22.97
2023-01-06T21:14:56.459Z,-22.98
2023-01-06T21:17:29.711Z,-23.03
2023-01-06T21:20:03.030Z,-23.07
2023-01-06T21:22:36.682Z,-23.12
2023-01-06T21:25:11.064Z,-23.17
2023-01-06T21:27:45.245Z,-23.21
2023-01-06T21:30:18.937Z,-23.24
2023-01-06T21:32:52.183Z,-23.23
2023-01-06T21:35:25.402Z,-23.24
2023-01-06T21:37:58.589Z,-23.23
2023-01-06T21:40:32.201Z,-23.21
2023-01-06T21:43:11.852Z,-23.18
2023-01-06T21:45:45.945Z,-23.17
2023-01-06T21:48:20.387Z,-23.20
2023-01-06T21:50:53.975Z,-23.22
2023-01-06T21:53:29.367Z,-23.26
2023-01-06T21:56:02.591Z,-23.25
2023-01-06T21:58:36.387Z,-23.21
2023-01-06T22:01:09.930Z,-23.22
2023-01-06T22:03:43.667Z,-23.20
2023-01-06T22:06:18.504Z,-23.23
2023-01-06T22:08:54.753Z,-23.22
2023-01-06T22:11:29.047Z,-23.20
2023-01-06T22:14:03.215Z,-23.20
2023-01-06T22:16:37.332Z,-23.19
2023-01-06T22:19:12.043Z,-23.20
2023-01-06T22:21:45.889Z,-23.23
2023-01-06T22:24:22.282Z,-23.26
2023-01-06T22:26:55.643Z,-23.32
2023-01-06T22:29:28.715Z,-23.37
2023-01-06T22:32:07.872Z,-23.41
2023-01-06T22:34:42.198Z,-23.40
2023-01-06T22:37:15.331Z,-23.40
2023-01-06T22:39:49.273Z,-23.39
2023-01-06T22:42:22.845Z,-23.41
2023-01-06T22:44:56.313Z,-23.41
2023-01-06T22:47:29.426Z,-23.41
2023-01-06T22:50:02.746Z,-23.44
2023-01-06T22:52:36.004Z,-23.47
2023-01-06T22:55:11.027Z,-23.52
2023-01-06T22:57:43.844Z,-23.55
2023-01-06T23:00:19.663Z,-23.57
2023-01-06T23:02:55.496Z,-23.59
2023-01-06T23:05:28.989Z,-23.60
2023-01-06T23:08:01.953Z,-23.60
2023-01-06T23:10:35.746Z,-23.63
2023-01-06T23:13:08.885Z,-23.59
2023-01-06T23:15:43.800Z,-23.59
2023-01-06T23:18:16.878Z,-23.59
2023-01-06T23:20:58.087Z,-23.56
2023-01-06T23:23:32.174Z,-23.56
2023-01-06T23:26:06.829Z,-23.54
2023-01-06T23:28:40.467Z,-23.56
2023-01-06T23:31:15.541Z,-23.54
2023-01-06T23:33:50.201Z,-23.54
2023-01-06T23:36:24.031Z,-23.54
2023-01-06T23:38:58.162Z,-23.54
2023-01-06T23:41:32.967Z,-23.56
2023-01-06T23:44:06.891Z,-23.55
2023-01-06T23:46:41.377Z,-23.56
2023-01-06T23:49:16.326Z,-23.55
2023-01-06T23:51:49.586Z,-23.53
2023-01-06T23:54:22.920Z,-23.55
2023-01-06T23:56:56.104Z,-23.55
2023-01-06T23:59:29.203Z,-23.56
